Time;durP1;ratioP1;P1;durP2;ratioP2;P2;SDS_P1;SDS_P2;PMS_P1;PMS_P2;Temp;Humidity;BMP_temperature;BMP_pressure;BME280_temperature;BME280_humidity;BME280_pressure;Samples;Min_cycle;Max_cycle;Signal;HPM_P1;HPM_P2
2021/12/28 00:02:20;;;;;;;27.27;15.63;;;;;;;8.46;100.00;94092.41;5091132;28;20204;-78
2021/12/28 00:04:49;;;;;;;25.50;15.80;;;;;;;8.37;100.00;94085.94;5088761;28;20224;-77
2021/12/28 00:07:18;;;;;;;24.37;13.93;;;;;;;8.41;100.00;94092.28;5093021;28;20207;-78
2021/12/28 00:09:47;;;;;;;25.40;14.17;;;;;;;8.44;100.00;94086.66;5092128;28;20262;-76
2021/12/28 00:12:16;;;;;;;24.07;14.67;;;;;;;8.50;100.00;94094.34;5088932;28;20205;-78
2021/12/28 00:15:01;;;;;;;24.13;14.43;;;;;;;8.52;100.00;94081.19;5092252;28;20345;-77
2021/12/28 00:20:17;;;;;;;19.17;12.27;;;;;;;8.49;100.00;94097.94;5089549;28;20229;-78
2021/12/28 00:22:46;;;;;;;18.87;11.83;;;;;;;8.43;100.00;94098.03;5087897;28;20664;-77
2021/12/28 00:25:15;;;;;;;19.93;12.10;;;;;;;8.33;100.00;94103.72;5087357;28;20232;-78
2021/12/28 00:27:45;;;;;;;21.53;11.80;;;;;;;8.17;100.00;94093.13;5087281;28;20243;-78
2021/12/28 00:30:17;;;;;;;18.40;11.33;;;;;;;8.26;100.00;94104.78;5090332;28;20852;-77
2021/12/28 00:32:52;;;;;;;19.77;12.17;;;;;;;8.25;100.00;94098.03;5089837;28;20691;-78
2021/12/28 00:35:22;;;;;;;18.37;12.10;;;;;;;8.32;100.00;94093.59;5091083;28;20201;-79
2021/12/28 00:37:51;;;;;;;17.60;11.47;;;;;;;8.21;100.00;94092.50;5088683;28;20215;-78
2021/12/28 00:40:21;;;;;;;18.17;11.00;;;;;;;8.25;100.00;94085.88;5088685;28;20283;-78
2021/12/28 00:42:50;;;;;;;18.93;11.83;;;;;;;8.32;100.00;94096.16;5089807;28;20223;-77
2021/12/28 00:45:20;;;;;;;18.40;11.37;;;;;;;8.30;100.00;94088.63;5091360;28;20220;-77
2021/12/28 00:47:50;;;;;;;20.33;12.50;;;;;;;8.19;100.00;94075.59;5093104;28;20645;-77
2021/12/28 00:50:20;;;;;;;17.90;12.30;;;;;;;8.19;100.00;94083.38;5091167;28;20215;-77
2021/12/28 00:52:49;;;;;;;20.43;12.73;;;;;;;8.28;100.00;94092.44;5091078;28;20231;-78
2021/12/28 00:55:20;;;;;;;18.57;11.90;;;;;;;8.29;100.00;94092.22;5095987;28;20203;-79
2021/12/28 00:57:49;;;;;;;19.93;11.80;;;;;;;8.34;100.00;94096.75;5090642;28;20205;-77
2021/12/28 01:00:22;;;;;;;18.03;11.77;;;;;;;8.40;100.00;94096.66;5091051;28;20596;-78
2021/12/28 01:02:53;;;;;;;17.30;11.90;;;;;;;8.30;100.00;94083.47;5089181;28;20674;-77
2021/12/28 01:05:23;;;;;;;18.80;11.60;;;;;;;8.37;100.00;94086.75;5095134;28;20208;-78
2021/12/28 01:07:53;;;;;;;21.70;12.50;;;;;;;8.42;100.00;94094.66;5094467;28;20299;-77
2021/12/28 01:10:24;;;;;;;21.60;12.83;;;;;;;8.46;100.00;94100.16;5086345;28;20234;-78
2021/12/28 01:12:55;;;;;;;21.47;12.80;;;;;;;8.53;100.00;94100.91;5099621;28;20231;-80
2021/12/28 01:15:26;;;;;;;20.73;13.40;;;;;;;8.52;100.00;94099.31;5095785;28;20740;-80
2021/12/28 01:17:57;;;;;;;20.70;12.60;;;;;;;8.46;100.00;94102.75;5099955;28;20215;-80
2021/12/28 01:20:26;;;;;;;23.33;13.43;;;;;;;8.47;100.00;94099.19;5093454;28;20217;-79
2021/12/28 01:22:56;;;;;;;23.90;12.67;;;;;;;8.45;100.00;94102.00;5098819;28;20215;-80
2021/12/28 01:25:26;;;;;;;26.37;13.73;;;;;;;8.46;100.00;94105.34;5091590;28;20318;-79
2021/12/28 01:27:55;;;;;;;25.47;14.77;;;;;;;8.43;100.00;94098.03;5100441;28;20237;-79
2021/12/28 01:30:26;;;;;;;24.50;14.10;;;;;;;8.37;100.00;94099.69;5091212;28;20215;-78
2021/12/28 01:32:59;;;;;;;26.87;14.43;;;;;;;8.40;100.00;94098.44;5093869;28;20274;-77
2021/12/28 01:35:29;;;;;;;21.07;13.80;;;;;;;8.38;100.00;94101.28;5090189;28;20224;-77
2021/12/28 01:37:59;;;;;;;24.93;14.87;;;;;;;8.33;100.00;94102.94;5092233;28;20196;-78
2021/12/28 01:40:30;;;;;;;31.03;14.80;;;;;;;8.41;100.00;94103.44;5091278;28;20571;-78
2021/12/28 01:43:10;;;;;;;25.37;14.60;;;;;;;8.40;100.00;94101.84;5093201;28;20204;-78
2021/12/28 01:45:43;;;;;;;24.37;15.57;;;;;;;8.36;100.00;94097.31;5092143;28;20331;-78
2021/12/28 01:48:17;;;;;;;27.60;14.73;;;;;;;8.39;100.00;94091.72;5091818;28;20283;-77
2021/12/28 01:50:46;;;;;;;23.47;15.47;;;;;;;8.40;100.00;94103.63;5090867;28;20206;-78
2021/12/28 01:53:16;;;;;;;26.20;14.27;;;;;;;8.36;100.00;94097.31;5090067;28;20212;-77
2021/12/28 01:55:48;;;;;;;24.50;15.73;;;;;;;8.37;100.00;94099.69;5091839;28;20207;-77
2021/12/28 01:58:17;;;;;;;22.30;14.33;;;;;;;8.40;100.00;94088.09;5090729;28;20929;-76
2021/12/28 02:00:49;;;;;;;23.80;14.90;;;;;;;8.43;100.00;94096.22;5093730;28;20242;-77
2021/12/28 02:03:21;;;;;;;28.60;14.87;;;;;;;8.47;100.00;94094.00;5090900;28;20563;-77
2021/12/28 02:05:51;;;;;;;22.63;15.07;;;;;;;8.44;100.00;94089.25;5093488;28;20293;-77
2021/12/28 02:08:21;;;;;;;28.57;16.60;;;;;;;8.46;100.00;94082.06;5090709;28;20252;-77
2021/12/28 02:10:52;;;;;;;23.90;15.20;;;;;;;8.41;100.00;94092.28;5089810;28;20384;-77
2021/12/28 02:13:21;;;;;;;28.20;16.30;;;;;;;8.42;100.00;94096.47;5090269;28;20238;-78
2021/12/28 02:15:54;;;;;;;24.00;15.47;;;;;;;8.46;100.00;94092.41;5096683;28;20285;-93
2021/12/28 02:18:27;;;;;;;29.47;16.63;;;;;;;8.44;100.00;94091.84;5086075;28;20636;-76
2021/12/28 02:20:59;;;;;;;22.73;15.00;;;;;;;8.41;100.00;94087.09;5089472;28;20208;-76
2021/12/28 02:23:28;;;;;;;23.47;14.50;;;;;;;8.36;100.00;94087.78;5092049;28;20210;-76
2021/12/28 02:25:57;;;;;;;25.97;14.93;;;;;;;8.39;100.00;94084.75;5091031;28;20228;-78
2021/12/28 02:28:27;;;;;;;25.70;15.60;;;;;;;8.39;100.00;94086.53;5099180;28;20272;-77
2021/12/28 02:30:57;;;;;;;24.97;15.07;;;;;;;8.46;100.00;94088.03;5096523;28;20214;-77
2021/12/28 02:33:27;;;;;;;20.50;13.13;;;;;;;8.51;100.00;94077.03;5092269;28;20213;-77
2021/12/28 02:36:00;;;;;;;25.70;14.63;;;;;;;8.50;100.00;94075.44;5098116;28;20203;-76
2021/12/28 02:38:29;;;;;;;21.63;14.10;;;;;;;8.47;100.00;94084.44;5094966;28;20204;-77
2021/12/28 02:40:58;;;;;;;23.77;14.60;;;;;;;8.46;100.00;94082.06;5096823;28;20200;-78
2021/12/28 02:43:27;;;;;;;27.43;16.93;;;;;;;8.36;100.00;94071.44;5094686;28;20203;-77
2021/12/28 02:46:01;;;;;;;26.60;16.23;;;;;;;8.30;100.00;94067.13;5094307;28;20705;-76
2021/12/28 02:48:31;;;;;;;33.13;19.13;;;;;;;8.36;100.00;94071.44;5092694;28;20211;-76
2021/12/28 02:51:04;;;;;;;32.13;18.53;;;;;;;8.35;100.00;94080.19;5095953;28;20293;-76
2021/12/28 02:53:34;;;;;;;35.10;19.90;;;;;;;8.28;100.00;94075.09;5090857;28;20287;-75
2021/12/28 02:56:04;;;;;;;34.77;19.57;;;;;;;8.30;100.00;94077.47;5091180;28;20650;-75
2021/12/28 02:58:36;;;;;;;32.30;19.30;;;;;;;8.33;100.00;94082.22;5088972;28;20200;-75
2021/12/28 03:01:09;;;;;;;33.23;18.03;;;;;;;8.08;100.00;94061.56;5088370;28;20204;-76
2021/12/28 03:03:40;;;;;;;32.47;17.93;;;;;;;8.12;100.00;94088.59;5084459;28;20580;-76
2021/12/28 03:06:13;;;;;;;34.93;17.87;;;;;;;8.06;100.00;94084.28;5093050;28;20268;-75
2021/12/28 03:08:45;;;;;;;30.87;17.43;;;;;;;8.05;100.00;94085.31;5093705;28;20277;-75
2021/12/28 03:11:15;;;;;;;30.00;18.60;;;;;;;8.13;100.00;94092.00;5089198;28;20216;-75
2021/12/28 03:13:46;;;;;;;37.83;20.63;;;;;;;8.12;100.00;94093.78;5088255;28;20239;-75
2021/12/28 03:16:17;;;;;;;33.63;20.17;;;;;;;8.17;100.00;94093.13;5093789;28;20219;-75
2021/12/28 03:18:46;;;;;;;35.43;19.97;;;;;;;8.21;100.00;94102.03;5088803;28;20664;-75
2021/12/28 03:21:18;;;;;;;33.37;19.07;;;;;;;8.24;100.00;94089.47;5090052;28;21715;-77
2021/12/28 03:23:48;;;;;;;35.67;19.20;;;;;;;8.24;100.00;94096.44;5088877;28;20560;-76
2021/12/28 03:26:17;;;;;;;31.93;19.57;;;;;;;8.26;100.00;94084.84;5089775;28;20745;-76
2021/12/28 03:28:47;;;;;;;33.73;20.30;;;;;;;8.35;100.00;94086.19;5088482;28;20255;-77
2021/12/28 03:31:19;;;;;;;36.27;20.13;;;;;;;8.34;100.00;94076.81;5089445;28;20236;-77
2021/12/28 03:33:50;;;;;;;34.20;20.17;;;;;;;8.40;100.00;94093.28;5090928;28;20739;-77
2021/12/28 03:36:22;;;;;;;31.57;19.50;;;;;;;8.39;100.00;94087.34;5088246;28;20204;-78
2021/12/28 03:38:52;;;;;;;35.63;19.90;;;;;;;8.30;100.00;94077.47;5088195;28;20284;-77
2021/12/28 03:41:33;;;;;;;31.73;19.43;;;;;;;8.35;100.00;94080.19;5080055;28;20636;-77
2021/12/28 03:44:03;;;;;;;33.80;20.40;;;;;;;8.37;100.00;94078.19;5082731;28;20795;-74
2021/12/28 03:46:33;;;;;;;41.93;24.60;;;;;;;8.37;100.00;94083.34;5091327;28;20862;-76
2021/12/28 03:49:02;;;;;;;40.47;23.10;;;;;;;8.35;100.00;94087.97;5088995;28;20653;-75
2021/12/28 03:51:33;;;;;;;40.93;21.97;;;;;;;8.37;100.00;94078.97;5090249;28;20212;-75
2021/12/28 03:54:01;;;;;;;37.60;20.87;;;;;;;8.38;100.00;94083.16;5090370;28;20209;-75
2021/12/28 03:56:31;;;;;;;34.53;20.20;;;;;;;8.42;100.00;94091.28;5090226;28;20211;-75
2021/12/28 03:59:00;;;;;;;35.50;20.27;;;;;;;8.30;100.00;94080.88;5090553;28;20235;-75
2021/12/28 04:01:29;;;;;;;33.87;20.43;;;;;;;8.31;100.00;94089.44;5090009;28;20211;-75
2021/12/28 04:03:58;;;;;;;32.63;20.20;;;;;;;8.48;100.00;94093.00;5089678;28;20239;-75
2021/12/28 04:06:28;;;;;;;32.53;19.00;;;;;;;8.40;100.00;94088.09;5089734;28;20277;-76
2021/12/28 04:09:02;;;;;;;31.33;19.23;;;;;;;8.43;100.00;94095.44;5089723;28;20593;-75
2021/12/28 04:11:32;;;;;;;34.27;18.00;;;;;;;8.50;100.00;94093.56;5089927;28;20208;-75
2021/12/28 04:14:05;;;;;;;31.37;18.93;;;;;;;8.47;100.00;94102.56;5089702;28;20240;-75
2021/12/28 04:16:36;;;;;;;35.57;19.57;;;;;;;8.42;100.00;94094.66;5095597;28;20203;-74
2021/12/28 04:19:06;;;;;;;36.93;19.33;;;;;;;8.35;100.00;94098.31;5089532;28;20280;-75
2021/12/28 04:21:37;;;;;;;34.47;19.63;;;;;;;8.23;100.00;94085.28;5083631;28;20201;-75
2021/12/28 04:24:08;;;;;;;31.70;20.80;;;;;;;8.27;100.00;94096.84;5084377;28;20204;-75
2021/12/28 04:26:37;;;;;;;32.63;20.40;;;;;;;8.21;100.00;94089.09;5091323;28;20281;-75
2021/12/28 04:29:06;;;;;;;36.43;20.77;;;;;;;8.27;100.00;94114.13;5093499;28;20584;-76
2021/12/28 04:31:35;;;;;;;33.87;20.73;;;;;;;8.13;100.00;94097.97;5093692;28;20267;-76
2021/12/28 04:34:04;;;;;;;34.67;21.33;;;;;;;8.18;100.00;94108.44;5094017;28;20210;-76
2021/12/28 04:36:33;;;;;;;36.23;20.37;;;;;;;8.24;100.00;94104.22;5093013;28;20197;-75
2021/12/28 04:39:02;;;;;;;35.20;21.33;;;;;;;8.33;100.00;94106.31;5092972;28;20653;-75
2021/12/28 04:41:32;;;;;;;38.53;24.00;;;;;;;8.34;100.00;94114.88;5093749;28;20200;-75
2021/12/28 04:44:01;;;;;;;51.17;28.17;;;;;;;8.32;100.00;94104.72;5093323;28;20269;-75
2021/12/28 04:46:30;;;;;;;57.00;33.50;;;;;;;8.21;100.00;94110.59;5091905;28;20228;-75
2021/12/28 04:49:00;;;;;;;100.83;57.87;;;;;;;8.17;100.00;94109.44;5093158;28;20201;-75
2021/12/28 04:51:29;;;;;;;74.70;42.10;;;;;;;8.18;100.00;94105.06;5093549;28;20200;-76
2021/12/28 04:54:00;;;;;;;60.27;35.73;;;;;;;8.20;100.00;94100.47;5093121;28;20204;-75
2021/12/28 04:56:29;;;;;;;52.10;30.93;;;;;;;8.13;100.00;94103.13;5093676;28;20656;-75
2021/12/28 04:59:00;;;;;;;49.13;28.87;;;;;;;8.13;100.00;94108.31;5086824;28;20208;-76
2021/12/28 05:01:28;;;;;;;48.10;27.87;;;;;;;8.06;100.00;94102.41;5093396;28;20199;-77
2021/12/28 05:03:57;;;;;;;45.50;27.40;;;;;;;8.12;100.00;94101.53;5092853;28;20257;-77
2021/12/28 05:06:26;;;;;;;37.17;22.80;;;;;;;8.08;100.00;94097.03;5092125;28;20228;-77
2021/12/28 05:08:55;;;;;;;39.33;24.77;;;;;;;8.03;100.00;94100.25;5092892;28;20201;-76
2021/12/28 05:11:24;;;;;;;34.53;21.30;;;;;;;7.99;100.00;94102.47;5092966;28;20208;-76
2021/12/28 05:13:52;;;;;;;35.67;22.33;;;;;;;8.05;100.00;94100.06;5092883;28;20336;-75
2021/12/28 05:16:28;;;;;;;48.47;27.40;;;;;;;8.05;100.00;94103.44;5098262;28;20208;-74
2021/12/28 05:18:57;;;;;;;52.97;30.33;;;;;;;8.07;100.00;94098.81;5092638;28;20212;-75
2021/12/28 05:21:27;;;;;;;56.83;31.70;;;;;;;7.98;100.00;94093.16;5093616;28;20644;-76
2021/12/28 05:23:56;;;;;;;55.30;31.97;;;;;;;8.10;100.00;94115.72;5092757;28;20201;-75
2021/12/28 05:26:25;;;;;;;65.83;35.10;;;;;;;8.09;100.00;94111.53;5092477;28;20224;-75
2021/12/28 05:28:54;;;;;;;66.30;37.80;;;;;;;7.98;100.00;94108.66;5092010;28;20237;-76
2021/12/28 05:31:26;;;;;;;58.33;36.03;;;;;;;7.95;100.00;94113.47;5093168;28;20767;-75
2021/12/28 05:33:55;;;;;;;66.07;36.93;;;;;;;7.93;100.00;94116.28;5093154;28;20227;-74
2021/12/28 05:36:25;;;;;;;62.20;35.53;;;;;;;7.94;100.00;94117.06;5092305;28;20283;-75
2021/12/28 05:38:54;;;;;;;63.50;35.20;;;;;;;7.95;100.00;94109.09;5091030;28;20197;-75
2021/12/28 05:41:23;;;;;;;59.00;36.07;;;;;;;7.95;100.00;94122.03;5091971;28;21020;-75
2021/12/28 05:43:52;;;;;;;61.87;37.47;;;;;;;7.92;100.00;94114.69;5091543;28;20212;-75
2021/12/28 05:46:27;;;;;;;76.40;43.20;;;;;;;7.96;100.00;94121.00;5089422;28;20256;-76
2021/12/28 05:48:56;;;;;;;92.83;52.53;;;;;;;7.95;100.00;94132.38;5092146;28;20253;-75
2021/12/28 05:51:24;;;;;;;106.03;56.00;;;;;;;7.96;100.00;94128.00;5091935;28;20208;-75
2021/12/28 05:53:54;;;;;;;101.87;56.00;;;;;;;7.94;100.00;94119.66;5091866;28;20200;-76
2021/12/28 05:56:23;;;;;;;91.50;52.50;;;;;;;7.97;100.00;94120.00;5092644;28;20293;-76
2021/12/28 05:58:51;;;;;;;95.07;51.47;;;;;;;7.96;100.00;94120.25;5091123;28;20208;-75
2021/12/28 06:01:20;;;;;;;96.77;54.90;;;;;;;7.92;100.00;94129.44;5091872;28;20236;-75
2021/12/28 06:03:51;;;;;;;102.47;57.37;;;;;;;7.86;100.00;94128.50;5091860;28;20229;-75
2021/12/28 06:06:21;;;;;;;101.07;56.13;;;;;;;7.80;100.00;94123.38;5091916;28;20228;-75
2021/12/28 06:08:51;;;;;;;103.70;56.83;;;;;;;7.75;100.00;94111.09;5092774;28;20207;-76
2021/12/28 06:11:20;;;;;;;100.33;55.00;;;;;;;7.85;100.00;94120.97;5085167;28;20243;-76
2021/12/28 06:13:50;;;;;;;101.97;57.47;;;;;;;7.82;100.00;94124.75;5091477;28;20249;-75
2021/12/28 06:16:19;;;;;;;82.37;48.87;;;;;;;7.82;100.00;94124.75;5095543;28;20667;-75
2021/12/28 06:18:48;;;;;;;81.07;45.50;;;;;;;7.69;100.00;94118.91;5091611;28;20238;-75
2021/12/28 06:21:18;;;;;;;80.20;45.83;;;;;;;7.67;100.00;94129.47;5092383;28;20200;-76
2021/12/28 06:23:48;;;;;;;95.03;51.40;;;;;;;7.62;100.00;94131.88;5091209;28;20214;-76
2021/12/28 06:26:17;;;;;;;85.17;49.07;;;;;;;7.60;100.00;94131.31;5090759;28;20228;-76
2021/12/28 06:28:47;;;;;;;84.10;49.10;;;;;;;7.54;100.00;94131.38;5090448;28;20621;-76
2021/12/28 06:31:15;;;;;;;95.83;52.30;;;;;;;7.55;100.00;94138.94;5091429;28;20196;-72
2021/12/28 06:33:45;;;;;;;95.23;54.07;;;;;;;7.62;100.00;94137.06;5089815;28;20308;-72
2021/12/28 06:36:14;;;;;;;126.63;67.60;;;;;;;7.59;100.00;94136.72;5089926;28;20197;-74
2021/12/28 06:38:45;;;;;;;133.67;76.80;;;;;;;7.69;100.00;94131.84;5089731;28;20228;-73
2021/12/28 06:41:14;;;;;;;144.90;80.53;;;;;;;7.67;100.00;94136.44;5085210;28;20589;-73
2021/12/28 06:43:44;;;;;;;159.53;86.63;;;;;;;7.58;100.00;94130.75;5085360;28;20207;-73
2021/12/28 06:46:13;;;;;;;156.33;89.87;;;;;;;7.54;100.00;94137.34;5092500;28;20280;-74
2021/12/28 06:48:41;;;;;;;161.27;90.57;;;;;;;7.50;100.00;94143.16;5090892;28;20273;-73
2021/12/28 06:51:11;;;;;;;154.43;88.37;;;;;;;7.46;100.00;94139.41;5089870;28;20302;-74
2021/12/28 06:53:40;;;;;;;176.93;96.63;;;;;;;7.52;100.00;94147.09;5090903;28;20266;-73
2021/12/28 06:56:12;;;;;;;182.27;101.43;;;;;;;7.60;100.00;94154.59;5091061;28;20192;-74
2021/12/28 06:58:42;;;;;;;169.73;93.77;;;;;;;7.67;100.00;94163.09;5090701;28;20204;-71
2021/12/28 07:01:11;;;;;;;140.00;78.77;;;;;;;7.70;100.00;94143.78;5090833;28;20234;-73
2021/12/28 07:03:40;;;;;;;162.90;90.33;;;;;;;7.69;100.00;94157.69;5090509;28;20209;-73
2021/12/28 07:06:10;;;;;;;169.77;92.90;;;;;;;7.78;100.00;94161.59;5090971;28;20315;-73
2021/12/28 07:08:39;;;;;;;165.30;91.20;;;;;;;7.86;100.00;94161.31;5090482;28;20209;-73
2021/12/28 07:11:10;;;;;;;130.53;73.83;;;;;;;7.86;100.00;94162.13;5090296;28;20205;-73
2021/12/28 07:13:39;;;;;;;113.77;60.73;;;;;;;7.91;100.00;94161.47;5090544;28;20326;-73
2021/12/28 07:16:11;;;;;;;96.00;51.53;;;;;;;7.87;100.00;94157.75;5093170;28;20695;-74
2021/12/28 07:18:40;;;;;;;101.93;55.63;;;;;;;7.87;100.00;94157.75;5090774;28;20215;-74
2021/12/28 07:21:09;;;;;;;114.60;60.60;;;;;;;7.96;100.00;94165.00;5089603;28;20208;-74
2021/12/28 07:23:38;;;;;;;117.47;62.90;;;;;;;7.91;100.00;94164.06;5089993;28;20205;-72
2021/12/28 07:26:08;;;;;;;139.17;73.17;;;;;;;7.84;100.00;94169.31;5085579;28;20224;-72
2021/12/28 07:28:39;;;;;;;152.00;78.57;;;;;;;7.87;100.00;94168.09;5088274;28;21156;-74
2021/12/28 07:31:09;;;;;;;132.43;72.23;;;;;;;7.83;100.00;94175.47;5090369;28;20200;-74
2021/12/28 07:33:38;;;;;;;96.20;54.43;;;;;;;7.89;100.00;94172.03;5089787;28;20224;-72
2021/12/28 07:36:08;;;;;;;77.07;46.60;;;;;;;7.92;100.00;94168.22;5089503;28;20275;-72
2021/12/28 07:38:38;;;;;;;71.10;42.77;;;;;;;7.98;100.00;94167.38;5089013;28;20655;-72
2021/12/28 07:41:06;;;;;;;76.50;44.80;;;;;;;8.05;100.00;94169.91;5089349;28;20197;-73
2021/12/28 07:43:36;;;;;;;89.17;50.43;;;;;;;8.04;100.00;94171.69;5089371;28;20197;-74
2021/12/28 07:46:06;;;;;;;102.20;54.27;;;;;;;8.02;100.00;94158.97;5088754;28;20290;-74
2021/12/28 07:48:40;;;;;;;101.53;54.90;;;;;;;8.13;100.00;94165.25;5088592;28;20220;-74
2021/12/28 07:51:10;;;;;;;103.40;56.60;;;;;;;8.24;100.00;94176.69;5087093;28;20302;-72
2021/12/28 07:53:42;;;;;;;99.10;56.10;;;;;;;8.27;100.00;94166.72;5083753;28;20279;-73
2021/12/28 07:56:14;;;;;;;95.33;54.63;;;;;;;8.29;100.00;94158.72;5088871;28;20272;-73
2021/12/28 07:58:54;;;;;;;99.83;53.73;;;;;;;8.36;100.00;94159.47;5086569;28;20272;-73
2021/12/28 08:01:35;;;;;;;87.17;51.60;;;;;;;8.35;100.00;94150.09;5086481;28;20645;-73
2021/12/28 08:04:08;;;;;;;83.97;49.00;;;;;;;8.52;100.00;94164.84;5084120;28;20201;-73
2021/12/28 08:06:37;;;;;;;90.77;49.80;;;;;;;8.62;100.00;94164.34;5084404;28;20226;-73
2021/12/28 08:09:07;;;;;;;87.77;50.90;;;;;;;8.77;100.00;94174.31;5086750;28;20192;-73
2021/12/28 08:11:36;;;;;;;90.70;49.47;;;;;;;8.84;100.00;94162.06;5089110;28;20209;-73
2021/12/28 08:14:08;;;;;;;84.17;49.63;;;;;;;8.93;100.00;94164.13;5087831;28;20250;-76
2021/12/28 08:16:39;;;;;;;81.43;46.80;;;;;;;8.96;100.00;94163.69;5086022;28;20662;-84
2021/12/28 08:19:08;;;;;;;73.27;42.70;;;;;;;9.08;100.00;94172.31;5087607;28;20193;-78
2021/12/28 08:21:37;;;;;;;62.57;37.43;;;;;;;9.14;100.00;94168.03;5086594;28;20228;-76
2021/12/28 08:24:07;;;;;;;57.03;36.23;;;;;;;9.18;100.00;94173.59;5088643;28;20770;-77
2021/12/28 08:26:36;;;;;;;54.27;31.77;;;;;;;9.22;100.00;94165.13;5086792;28;20236;-76
2021/12/28 08:29:05;;;;;;;45.30;27.87;;;;;;;9.35;100.00;94172.69;5087821;28;20228;-77
2021/12/28 08:31:35;;;;;;;45.57;27.57;;;;;;;9.35;100.00;94167.53;5089403;28;20618;-78
2021/12/28 08:34:06;;;;;;;41.60;26.07;;;;;;;9.43;100.00;94174.22;5088603;28;20192;-76
2021/12/28 08:36:35;;;;;;;39.70;25.43;;;;;;;9.54;100.00;94173.44;5088631;28;20184;-78
2021/12/28 08:39:05;;;;;;;38.33;25.20;;;;;;;9.59;100.00;94174.34;5087435;28;20615;-77
2021/12/28 08:41:33;;;;;;;37.93;22.37;;;;;;;9.60;100.00;94173.34;5087963;28;20197;-77
2021/12/28 08:44:02;;;;;;;35.50;22.03;;;;;;;9.64;100.00;94169.28;5088815;28;20208;-76
2021/12/28 08:46:31;;;;;;;35.40;22.43;;;;;;;9.70;100.00;94178.75;5088535;28;20231;-77
2021/12/28 08:49:00;;;;;;;35.67;21.17;;;;;;;9.74;100.00;94175.72;5086544;28;20209;-75
2021/12/28 08:51:30;;;;;;;35.97;20.43;;;;;;;9.78;100.00;94169.06;5085122;28;20271;-75
2021/12/28 08:54:00;;;;;;;32.10;19.63;;;;;;;9.79;100.00;94168.84;5088812;28;20617;-73
2021/12/28 08:56:28;;;;;;;28.40;18.20;;;;;;;9.90;100.00;94167.28;5089672;28;20288;-73
2021/12/28 08:58:57;;;;;;;25.37;16.57;;;;;;;9.92;100.00;94167.84;5088803;28;20201;-76
2021/12/28 09:01:26;;;;;;;28.27;16.53;;;;;;;9.95;100.00;94165.59;5089457;28;20201;-74
2021/12/28 09:03:55;;;;;;;25.30;15.17;;;;;;;10.03;100.00;94160.03;5088963;28;20205;-74
2021/12/28 09:06:27;;;;;;;22.23;13.97;;;;;;;10.20;100.00;94160.16;5089791;28;20228;-73
2021/12/28 09:08:59;;;;;;;19.53;12.53;;;;;;;10.38;100.00;94159.25;5088704;28;20325;-80
2021/12/28 09:11:29;;;;;;;17.20;10.57;;;;;;;10.52;100.00;94158.78;5088396;28;20201;-75
2021/12/28 09:13:57;;;;;;;17.57;10.87;;;;;;;10.68;100.00;94170.25;5091001;28;20296;-74
2021/12/28 09:16:26;;;;;;;14.97;10.20;;;;;;;10.63;100.00;94164.94;5100745;28;20249;-86
2021/12/28 09:18:55;;;;;;;16.90;9.87;;;;;;;10.61;100.00;94139.22;5101096;28;20201;-76
2021/12/28 09:21:23;;;;;;;14.60;9.33;;;;;;;10.83;100.00;94170.53;5080144;28;20208;-77
2021/12/28 09:23:53;;;;;;;13.57;9.33;;;;;;;10.89;100.00;94166.22;5086593;28;20203;-77
2021/12/28 09:26:23;;;;;;;16.90;10.77;;;;;;;11.03;100.00;94167.53;5092913;28;20242;-77
2021/12/28 09:28:53;;;;;;;19.20;11.70;;;;;;;11.11;100.00;94161.97;5092486;28;20562;-78
2021/12/28 09:31:22;;;;;;;19.90;11.97;;;;;;;11.19;100.00;94161.59;5093362;28;20200;-79
2021/12/28 09:33:51;;;;;;;20.60;11.73;;;;;;;11.25;100.00;94160.66;5092616;28;20288;-78
2021/12/28 09:36:20;;;;;;;20.13;13.00;;;;;;;11.34;100.00;94167.84;5091446;28;20232;-79
2021/12/28 09:38:49;;;;;;;21.83;14.00;;;;;;;11.37;100.00;94161.38;5087287;28;20232;-78
2021/12/28 09:41:18;;;;;;;23.50;15.53;;;;;;;11.37;100.00;94162.16;5087251;28;20196;-79
2021/12/28 09:43:49;;;;;;;33.20;16.37;;;;;;;11.45;100.00;94150.59;5089822;28;20219;-75
2021/12/28 09:46:19;;;;;;;26.70;17.30;;;;;;;11.52;100.00;94153.03;5092217;28;20220;-75
2021/12/28 09:48:48;;;;;;;26.03;17.30;;;;;;;11.69;100.00;94143.41;5090101;28;20206;-77
2021/12/28 09:51:17;;;;;;;27.70;16.90;;;;;;;11.83;100.00;94155.16;5090870;28;20200;-75
2021/12/28 09:53:45;;;;;;;26.27;16.93;;;;;;;11.88;100.00;94152.59;5091516;28;20193;-75
2021/12/28 09:56:14;;;;;;;28.00;18.03;;;;;;;11.81;100.00;94155.38;5089798;28;20636;-74
2021/12/28 09:58:44;;;;;;;22.97;16.30;;;;;;;12.08;100.00;94146.91;5089266;28;20264;-75
2021/12/28 10:01:15;;;;;;;24.27;15.43;;;;;;;12.84;100.00;94159.84;5090005;28;20213;-75
2021/12/28 10:03:44;;;;;;;20.37;14.13;;;;;;;13.87;98.16;94164.03;5090736;28;20257;-75
2021/12/28 10:06:30;;;;;;;24.30;14.77;;;;;;;15.12;91.54;94170.22;5089031;28;20198;-76
2021/12/28 10:09:11;;;;;;;18.30;13.43;;;;;;;16.22;86.60;94171.38;5090357;28;20286;-76
2021/12/28 10:11:42;;;;;;;19.97;13.33;;;;;;;17.13;81.66;94166.69;5082801;28;20211;-76
2021/12/28 10:14:16;;;;;;;23.00;14.73;;;;;;;16.98;79.28;94166.72;5090471;28;20283;-75
2021/12/28 10:16:51;;;;;;;21.97;13.80;;;;;;;16.46;81.12;94165.31;5095603;28;20224;-74
2021/12/28 10:19:46;;;;;;;20.77;14.13;;;;;;;16.34;81.50;94162.16;5091565;28;20287;-76
2021/12/28 10:22:31;;;;;;;21.87;14.07;;;;;;;15.97;82.74;94145.97;5091140;28;20294;-76
2021/12/28 10:25:02;;;;;;;22.80;13.60;;;;;;;16.14;82.68;94153.53;5088809;28;20201;-77
2021/12/28 10:27:32;;;;;;;22.33;13.47;;;;;;;16.11;83.07;94147.00;5087557;28;20208;-76
2021/12/28 10:30:11;;;;;;;20.70;13.30;;;;;;;16.03;82.54;94146.75;5089214;28;20200;-75
2021/12/28 10:32:44;;;;;;;20.40;14.43;;;;;;;16.02;83.13;94147.78;5088620;28;20204;-75
2021/12/28 10:35:20;;;;;;;20.43;14.00;;;;;;;15.97;83.04;94142.56;5089643;28;20189;-76
2021/12/28 10:37:51;;;;;;;17.93;13.27;;;;;;;16.00;82.48;94140.19;5087646;28;20199;-76
2021/12/28 10:40:28;;;;;;;19.53;13.50;;;;;;;16.10;81.85;94142.81;5087066;28;20224;-75
2021/12/28 10:43:05;;;;;;;20.63;13.67;;;;;;;15.91;82.77;94141.78;5089867;28;20193;-76
2021/12/28 10:45:40;;;;;;;18.30;13.77;;;;;;;15.72;83.13;94148.59;5090104;28;20238;-76
2021/12/28 10:48:16;;;;;;;19.03;14.03;;;;;;;15.40;83.50;94138.31;5088259;28;20258;-76
2021/12/28 10:50:48;;;;;;;22.40;13.90;;;;;;;14.94;84.80;94136.66;5089525;28;20220;-75
2021/12/28 10:53:23;;;;;;;19.67;14.63;;;;;;;14.56;86.41;94116.88;5089786;28;20667;-75
2021/12/28 10:55:58;;;;;;;21.10;14.57;;;;;;;14.31;88.71;94129.81;5088185;28;20192;-75
2021/12/28 10:58:35;;;;;;;20.77;14.37;;;;;;;14.15;89.77;94128.94;5085259;28;20297;-80
2021/12/28 11:01:07;;;;;;;22.17;15.77;;;;;;;14.54;90.12;94119.78;5087613;28;20206;-78
2021/12/28 11:03:40;;;;;;;22.43;15.00;;;;;;;15.21;88.02;94105.81;5088882;28;20254;-72
2021/12/28 11:06:16;;;;;;;24.27;15.07;;;;;;;16.08;83.08;94126.56;5090250;28;20727;-74
2021/12/28 11:08:48;;;;;;;25.57;14.40;;;;;;;16.98;78.67;94125.53;5089471;28;20223;-74
2021/12/28 11:11:20;;;;;;;24.23;15.00;;;;;;;17.95;75.64;94118.56;5089262;28;20278;-74
2021/12/28 11:13:50;;;;;;;22.00;14.70;;;;;;;18.47;73.19;94130.19;5090066;28;20201;-78
2021/12/28 11:16:23;;;;;;;20.93;13.40;;;;;;;19.02;70.61;94129.56;5094802;28;20196;-79
2021/12/28 11:18:54;;;;;;;19.90;14.10;;;;;;;20.06;67.27;94135.47;5090812;28;20201;-77
2021/12/28 11:21:26;;;;;;;21.97;14.03;;;;;;;20.89;64.98;94129.25;5090399;28;20201;-76
2021/12/28 11:23:57;;;;;;;19.73;13.97;;;;;;;21.19;62.52;94120.72;5090668;28;20204;-80
2021/12/28 11:26:28;;;;;;;21.43;14.77;;;;;;;20.47;63.43;94122.38;5089966;28;20200;-77
2021/12/28 11:29:04;;;;;;;22.97;14.73;;;;;;;19.58;65.34;94113.03;5090362;28;20785;-79
2021/12/28 11:31:37;;;;;;;20.27;14.30;;;;;;;18.68;68.64;94103.38;5088505;28;20273;-76
2021/12/28 11:34:13;;;;;;;20.37;14.17;;;;;;;17.95;70.69;94100.16;5089913;28;20246;-76